createdAt,value
2022-11-05T00:00:20.273Z,995.17
2022-11-05T00:05:20.215Z,995.30
2022-11-05T00:10:20.178Z,995.38
2022-11-05T00:15:20.128Z,995.32
2022-11-05T00:20:20.113Z,995.31
2022-11-05T00:25:19.998Z,995.42
2022-11-05T05:00:32.082Z,997.18
2022-11-05T05:05:31.923Z,997.13
2022-11-05T05:10:31.854Z,997.13
2022-11-05T05:15:38.873Z,997.16
2022-11-05T05:20:31.759Z,997.26
2022-11-05T05:25:31.702Z,997.26
2022-11-05T05:30:31.645Z,997.33
2022-11-05T05:35:31.624Z,997.39
2022-11-05T05:40:31.556Z,997.41
2022-11-05T05:45:31.474Z,997.42
2022-11-05T05:50:31.432Z,997.38
2022-11-05T05:55:31.401Z,997.51
2022-11-05T06:00:31.320Z,997.60
2022-11-05T06:05:31.267Z,997.62
2022-11-05T06:10:31.258Z,997.74
2022-11-05T06:15:35.652Z,997.83
2022-11-05T06:20:31.090Z,997.85
2022-11-05T06:25:31.103Z,997.87
2022-11-05T06:30:31.012Z,997.91
2022-11-05T06:35:30.959Z,997.80
2022-11-05T06:40:30.883Z,997.89
2022-11-05T06:45:30.828Z,997.93
2022-11-05T06:50:30.779Z,998.06
2022-11-05T06:55:30.726Z,998.05
2022-11-05T07:00:30.807Z,998.05
2022-11-05T07:05:30.623Z,998.23
2022-11-05T07:10:30.563Z,998.30
2022-11-05T07:15:30.719Z,998.29
2022-11-05T07:20:33.848Z,998.36
2022-11-05T07:25:30.396Z,998.44
2022-11-05T07:30:30.327Z,998.46
2022-11-05T07:35:30.349Z,998.53
2022-11-05T07:40:30.237Z,998.60
2022-11-05T07:45:30.187Z,998.58
2022-11-05T07:50:30.131Z,998.58
2022-11-05T07:55:30.096Z,998.62
2022-11-05T08:00:30.022Z,998.64
2022-11-05T08:05:29.970Z,998.67
2022-11-05T08:10:29.916Z,998.76
2022-11-05T08:15:29.884Z,998.83
2022-11-05T08:20:29.811Z,998.80
2022-11-05T08:25:29.758Z,998.82
2022-11-05T08:30:29.704Z,998.82
2022-11-05T08:35:29.752Z,998.87
2022-11-05T08:40:29.590Z,998.81
2022-11-05T08:45:29.538Z,998.87
2022-11-05T08:50:29.485Z,998.92
2022-11-05T08:55:29.445Z,999.01
2022-11-05T09:00:29.377Z,999.04
2022-11-05T09:05:29.324Z,999.05
2022-11-05T09:10:29.284Z,999.06
2022-11-05T09:15:29.237Z,999.11
2022-11-05T09:20:29.165Z,999.07
2022-11-05T09:25:29.108Z,999.13
2022-11-05T09:30:29.076Z,999.17
2022-11-05T09:35:29.019Z,999.12
2022-11-05T09:40:28.945Z,999.24
2022-11-05T09:45:28.898Z,999.26
2022-11-05T09:50:28.841Z,999.23
2022-11-05T09:55:28.805Z,999.22
2022-11-05T10:00:28.734Z,999.23
2022-11-05T10:05:28.772Z,999.24
2022-11-05T10:10:28.628Z,999.33
2022-11-05T10:15:28.591Z,999.33
2022-11-05T10:20:28.517Z,999.33
2022-11-05T10:25:28.466Z,999.32
2022-11-05T10:30:28.413Z,999.32
2022-11-05T10:35:28.412Z,999.33
2022-11-05T10:40:28.309Z,999.37
2022-11-05T10:45:28.248Z,999.38
2022-11-05T10:50:28.204Z,999.46
2022-11-05T10:55:28.163Z,999.45
2022-11-05T11:00:28.091Z,999.41
2022-11-05T11:05:28.034Z,999.45
2022-11-05T11:10:27.984Z,999.46
2022-11-05T11:15:34.982Z,999.41
2022-11-05T11:20:27.879Z,999.31
2022-11-05T11:25:27.820Z,999.26
2022-11-05T11:30:27.773Z,999.23
2022-11-05T11:35:27.734Z,999.24
2022-11-05T11:40:27.662Z,999.21
2022-11-05T11:45:27.673Z,999.36
2022-11-05T11:50:27.552Z,999.28
2022-11-05T11:55:27.671Z,999.21
2022-11-05T12:00:27.445Z,999.21
2022-11-05T12:05:27.391Z,999.11
2022-11-05T12:10:27.339Z,999.14
2022-11-05T12:15:27.300Z,999.11
2022-11-05T12:20:27.230Z,999.12
2022-11-05T12:25:27.173Z,999.21
2022-11-05T12:30:27.120Z,999.16
2022-11-05T12:35:27.081Z,999.09
2022-11-05T12:40:27.014Z,999.04
2022-11-05T12:45:26.957Z,999.04
2022-11-05T12:50:26.904Z,999.05
2022-11-05T12:55:26.868Z,998.96
2022-11-05T13:00:26.793Z,998.95
2022-11-05T13:05:26.775Z,998.89
2022-11-05T13:10:26.683Z,998.87
2022-11-05T13:15:26.646Z,998.70
2022-11-05T13:20:26.581Z,998.65
2022-11-05T13:25:26.541Z,998.75
2022-11-05T13:30:26.491Z,998.78
2022-11-05T13:35:26.435Z,998.79
2022-11-05T13:40:26.366Z,998.74
2022-11-05T13:45:26.307Z,998.62
2022-11-05T13:50:26.257Z,998.57
2022-11-05T13:55:26.220Z,998.66
2022-11-05T14:00:26.187Z,998.52
2022-11-05T14:05:26.077Z,998.51
2022-11-05T14:10:26.039Z,998.56
2022-11-05T14:15:26.008Z,998.45
2022-11-05T14:20:25.919Z,998.47
2022-11-05T14:25:25.876Z,998.46
2022-11-05T14:30:25.833Z,998.38
2022-11-05T14:35:25.778Z,998.38
2022-11-05T14:40:25.717Z,998.31
2022-11-05T14:45:25.667Z,998.33
2022-11-05T14:50:25.594Z,998.17
2022-11-05T14:55:25.668Z,998.12
2022-11-05T15:00:25.504Z,998.14
2022-11-05T15:05:25.442Z,998.11
2022-11-05T15:10:25.387Z,998.23
2022-11-05T15:15:25.483Z,998.42
2022-11-05T15:20:25.288Z,998.33
2022-11-05T15:25:25.231Z,998.37
2022-11-05T15:30:25.180Z,998.36
2022-11-05T15:35:25.235Z,998.33
2022-11-05T15:40:25.082Z,998.27
2022-11-05T15:45:25.028Z,998.30
2022-11-05T15:50:25.099Z,998.25
2022-11-05T15:55:24.955Z,998.17
2022-11-05T16:00:24.866Z,998.27
2022-11-05T16:05:24.806Z,998.34
2022-11-05T16:10:24.751Z,998.36
2022-11-05T16:15:24.723Z,998.40
2022-11-05T16:20:24.652Z,998.42
2022-11-05T16:25:24.594Z,998.42
2022-11-05T16:30:24.541Z,998.42
2022-11-05T16:35:24.651Z,998.42
2022-11-05T16:40:24.438Z,998.42
2022-11-05T16:45:24.386Z,998.36
2022-11-05T16:50:24.427Z,998.49
2022-11-05T16:55:24.518Z,998.42
2022-11-05T17:00:24.219Z,998.47
2022-11-05T17:05:24.178Z,998.49
2022-11-05T17:10:24.122Z,998.54
2022-11-05T17:15:31.207Z,998.61
2022-11-05T17:20:24.012Z,998.54
2022-11-05T17:25:23.958Z,998.58
2022-11-05T17:30:23.910Z,998.59
2022-11-05T17:35:23.870Z,998.57
2022-11-05T17:40:23.800Z,998.55
2022-11-05T17:45:23.746Z,998.65
2022-11-05T17:50:23.693Z,998.51
2022-11-05T17:55:23.662Z,998.60
2022-11-05T18:00:23.585Z,998.60
2022-11-05T18:05:23.536Z,998.71
2022-11-05T18:10:23.482Z,998.65
2022-11-05T18:15:23.447Z,998.61
2022-11-05T18:20:23.379Z,998.64
2022-11-05T18:25:23.319Z,998.75
2022-11-05T18:30:23.268Z,998.78
2022-11-05T18:35:23.233Z,998.69
2022-11-05T18:40:23.162Z,998.76
2022-11-05T18:45:28.406Z,998.72
2022-11-05T18:50:24.050Z,998.61
2022-11-05T18:55:23.140Z,998.62
2022-11-05T19:00:22.958Z,998.61
2022-11-05T19:05:28.976Z,998.57
2022-11-05T19:10:23.843Z,998.61
2022-11-05T19:15:22.838Z,998.65
2022-11-05T19:20:22.741Z,998.59
2022-11-05T19:25:22.672Z,998.63
2022-11-05T19:30:22.620Z,998.69
2022-11-05T19:35:22.594Z,998.72
2022-11-05T19:40:22.504Z,998.70
2022-11-05T19:45:43.554Z,998.73
2022-11-05T19:50:23.408Z,998.81
2022-11-05T19:55:22.371Z,998.89
2022-11-05T20:00:22.299Z,998.76
2022-11-05T20:05:22.243Z,998.66
2022-11-05T20:10:22.200Z,998.61
2022-11-05T20:15:22.149Z,998.63
2022-11-05T20:20:22.087Z,998.60
2022-11-05T20:25:22.029Z,998.64
2022-11-05T20:30:21.973Z,998.82
2022-11-05T20:35:21.940Z,998.71
2022-11-05T20:40:21.865Z,998.80
2022-11-05T20:45:21.819Z,998.74
2022-11-05T20:50:21.808Z,998.61
2022-11-05T20:55:21.724Z,998.69
2022-11-05T21:00:21.647Z,998.66
2022-11-05T21:05:21.602Z,998.65
2022-11-05T21:10:21.628Z,998.64
2022-11-05T21:15:21.511Z,998.70
2022-11-05T21:20:21.431Z,998.84
2022-11-05T21:25:21.381Z,998.88
2022-11-05T21:30:21.322Z,998.92
2022-11-05T21:35:21.296Z,998.88
2022-11-05T21:40:21.225Z,998.88
2022-11-05T21:45:21.170Z,998.77
2022-11-05T21:50:22.056Z,998.77
2022-11-05T21:55:21.074Z,998.64
2022-11-05T22:00:21.003Z,998.35
2022-11-05T22:05:20.948Z,998.32
2022-11-05T22:10:20.892Z,998.35
2022-11-05T22:15:20.863Z,998.30
2022-11-05T22:20:20.792Z,998.23
2022-11-05T22:25:20.740Z,998.32
2022-11-05T22:30:20.679Z,998.26
2022-11-05T22:35:20.651Z,998.24
2022-11-05T22:40:23.873Z,998.24
2022-11-05T22:45:20.521Z,998.12
2022-11-05T22:50:20.463Z,998.10
2022-11-05T22:55:20.432Z,998.10
2022-11-05T23:00:20.359Z,998.01
2022-11-05T23:05:20.393Z,997.98
2022-11-05T23:10:20.251Z,997.98
2022-11-05T23:15:20.217Z,997.89
2022-11-05T23:20:27.180Z,997.88
2022-11-05T23:25:20.093Z,997.91
2022-11-05T23:30:20.047Z,997.85
2022-11-05T23:35:20.002Z,997.82
2022-11-05T23:40:19.932Z,997.81
2022-11-05T23:45:19.907Z,997.74
2022-11-05T23:50:19.832Z,997.72
2022-11-05T23:55:19.777Z,997.71
